sensor_id;sensor_type;location;lat;lon;timestamp;P1;durP1;ratioP1;P2;durP2;ratioP2
8247;SDS011;4164;49.844;8.830;2022-10-31T00:00:39;9.30;;;4.90;;
8247;SDS011;4164;49.844;8.830;2022-10-31T00:03:05;10.83;;;4.80;;
8247;SDS011;4164;49.844;8.830;2022-10-31T00:05:30;9.77;;;4.50;;
8247;SDS011;4164;49.844;8.830;2022-10-31T00:07:56;12.37;;;5.20;;
8247;SDS011;4164;49.844;8.830;2022-10-31T00:10:21;14.67;;;4.60;;
8247;SDS011;4164;49.844;8.830;2022-10-31T00:12:47;6.27;;;4.07;;
8247;SDS011;4164;49.844;8.830;2022-10-31T00:15:13;10.77;;;5.73;;
8247;SDS011;4164;49.844;8.830;2022-10-31T00:17:38;9.27;;;4.40;;
8247;SDS011;4164;49.844;8.830;2022-10-31T00:20:04;8.37;;;4.33;;
8247;SDS011;4164;49.844;8.830;2022-10-31T00:22:30;10.87;;;4.47;;
8247;SDS011;4164;49.844;8.830;2022-10-31T00:24:55;9.63;;;4.93;;
8247;SDS011;4164;49.844;8.830;2022-10-31T00:27:21;8.77;;;4.40;;
8247;SDS011;4164;49.844;8.830;2022-10-31T00:29:46;8.60;;;4.37;;
8247;SDS011;4164;49.844;8.830;2022-10-31T00:32:12;10.83;;;4.53;;
8247;SDS011;4164;49.844;8.830;2022-10-31T00:34:37;11.30;;;5.07;;
8247;SDS011;4164;49.844;8.830;2022-10-31T00:37:03;13.90;;;5.10;;
8247;SDS011;4164;49.844;8.830;2022-10-31T00:39:28;12.30;;;4.43;;
8247;SDS011;4164;49.844;8.830;2022-10-31T00:41:54;8.63;;;5.27;;
8247;SDS011;4164;49.844;8.830;2022-10-31T00:44:19;10.53;;;4.37;;
8247;SDS011;4164;49.844;8.830;2022-10-31T00:46:45;11.43;;;5.20;;
8247;SDS011;4164;49.844;8.830;2022-10-31T00:49:10;11.17;;;4.53;;
8247;SDS011;4164;49.844;8.830;2022-10-31T00:51:37;9.00;;;5.10;;
8247;SDS011;4164;49.844;8.830;2022-10-31T00:54:02;10.77;;;4.70;;
8247;SDS011;4164;49.844;8.830;2022-10-31T00:56:28;8.30;;;4.30;;
8247;SDS011;4164;49.844;8.830;2022-10-31T00:58:53;5.30;;;3.90;;
8247;SDS011;4164;49.844;8.830;2022-10-31T01:01:19;8.53;;;4.37;;
8247;SDS011;4164;49.844;8.830;2022-10-31T01:03:45;12.37;;;4.90;;
8247;SDS011;4164;49.844;8.830;2022-10-31T01:06:11;7.73;;;4.33;;
8247;SDS011;4164;49.844;8.830;2022-10-31T01:08:38;8.93;;;4.60;;
8247;SDS011;4164;49.844;8.830;2022-10-31T01:13:40;9.83;;;4.87;;
8247;SDS011;4164;49.844;8.830;2022-10-31T01:16:06;12.50;;;4.97;;
8247;SDS011;4164;49.844;8.830;2022-10-31T01:18:33;10.83;;;5.17;;
8247;SDS011;4164;49.844;8.830;2022-10-31T01:21:06;10.30;;;5.70;;
8247;SDS011;4164;49.844;8.830;2022-10-31T01:23:34;8.37;;;4.90;;
8247;SDS011;4164;49.844;8.830;2022-10-31T01:26:02;10.33;;;5.13;;
8247;SDS011;4164;49.844;8.830;2022-10-31T01:28:30;12.47;;;5.23;;
8247;SDS011;4164;49.844;8.830;2022-10-31T01:30:59;9.63;;;5.13;;
8247;SDS011;4164;49.844;8.830;2022-10-31T01:33:25;12.40;;;5.50;;
8247;SDS011;4164;49.844;8.830;2022-10-31T01:35:51;7.97;;;4.93;;
8247;SDS011;4164;49.844;8.830;2022-10-31T01:38:16;10.30;;;4.87;;
8247;SDS011;4164;49.844;8.830;2022-10-31T01:40:42;8.00;;;4.90;;
8247;SDS011;4164;49.844;8.830;2022-10-31T01:43:11;11.57;;;5.10;;
8247;SDS011;4164;49.844;8.830;2022-10-31T01:45:40;12.80;;;5.13;;
8247;SDS011;4164;49.844;8.830;2022-10-31T01:48:11;10.23;;;5.40;;
8247;SDS011;4164;49.844;8.830;2022-10-31T01:50:40;10.47;;;5.30;;
8247;SDS011;4164;49.844;8.830;2022-10-31T01:53:07;10.10;;;5.30;;
8247;SDS011;4164;49.844;8.830;2022-10-31T01:55:35;10.30;;;5.07;;
8247;SDS011;4164;49.844;8.830;2022-10-31T01:58:09;10.10;;;5.07;;
8247;SDS011;4164;49.844;8.830;2022-10-31T02:00:39;6.33;;;4.23;;
8247;SDS011;4164;49.844;8.830;2022-10-31T02:03:06;11.53;;;5.27;;
8247;SDS011;4164;49.844;8.830;2022-10-31T02:05:32;9.47;;;5.30;;
8247;SDS011;4164;49.844;8.830;2022-10-31T02:08:02;12.63;;;5.40;;
8247;SDS011;4164;49.844;8.830;2022-10-31T02:10:33;6.50;;;4.53;;
8247;SDS011;4164;49.844;8.830;2022-10-31T02:13:02;12.80;;;5.87;;
8247;SDS011;4164;49.844;8.830;2022-10-31T02:15:29;9.40;;;5.80;;
8247;SDS011;4164;49.844;8.830;2022-10-31T02:17:57;9.33;;;4.93;;
8247;SDS011;4164;49.844;8.830;2022-10-31T02:20:24;11.67;;;4.93;;
8247;SDS011;4164;49.844;8.830;2022-10-31T02:31:14;8.20;;;5.20;;
8247;SDS011;4164;49.844;8.830;2022-10-31T02:34:13;8.70;;;4.60;;
8247;SDS011;4164;49.844;8.830;2022-10-31T02:36:56;10.50;;;5.07;;
8247;SDS011;4164;49.844;8.830;2022-10-31T02:39:38;10.30;;;4.77;;
8247;SDS011;4164;49.844;8.830;2022-10-31T02:42:14;11.63;;;5.53;;
8247;SDS011;4164;49.844;8.830;2022-10-31T02:45:07;10.70;;;5.40;;
8247;SDS011;4164;49.844;8.830;2022-10-31T02:47:48;7.77;;;5.27;;
8247;SDS011;4164;49.844;8.830;2022-10-31T02:50:24;9.73;;;6.20;;
8247;SDS011;4164;49.844;8.830;2022-10-31T02:52:56;7.60;;;4.40;;
8247;SDS011;4164;49.844;8.830;2022-10-31T02:57:47;9.80;;;4.83;;
8247;SDS011;4164;49.844;8.830;2022-10-31T03:00:14;9.47;;;4.50;;
8247;SDS011;4164;49.844;8.830;2022-10-31T03:05:11;10.50;;;4.73;;
8247;SDS011;4164;49.844;8.830;2022-10-31T03:10:41;9.87;;;4.80;;
8247;SDS011;4164;49.844;8.830;2022-10-31T03:16:01;10.37;;;4.47;;
8247;SDS011;4164;49.844;8.830;2022-10-31T03:19:22;10.47;;;4.50;;
8247;SDS011;4164;49.844;8.830;2022-10-31T03:21:29;7.87;;;4.30;;
8247;SDS011;4164;49.844;8.830;2022-10-31T03:24:00;11.97;;;5.10;;
8247;SDS011;4164;49.844;8.830;2022-10-31T03:26:27;11.30;;;5.50;;
8247;SDS011;4164;49.844;8.830;2022-10-31T03:29:02;9.37;;;5.00;;
8247;SDS011;4164;49.844;8.830;2022-10-31T03:31:31;11.87;;;4.73;;
8247;SDS011;4164;49.844;8.830;2022-10-31T03:34:00;14.50;;;5.07;;
8247;SDS011;4164;49.844;8.830;2022-10-31T03:36:28;12.73;;;5.67;;
8247;SDS011;4164;49.844;8.830;2022-10-31T03:38:58;8.33;;;5.10;;
8247;SDS011;4164;49.844;8.830;2022-10-31T03:41:28;10.87;;;4.50;;
8247;SDS011;4164;49.844;8.830;2022-10-31T03:43:58;10.83;;;4.90;;
8247;SDS011;4164;49.844;8.830;2022-10-31T03:46:28;8.30;;;4.23;;
8247;SDS011;4164;49.844;8.830;2022-10-31T03:48:53;6.70;;;4.00;;
8247;SDS011;4164;49.844;8.830;2022-10-31T03:51:24;11.10;;;4.50;;
8247;SDS011;4164;49.844;8.830;2022-10-31T03:56:53;8.70;;;4.70;;
8247;SDS011;4164;49.844;8.830;2022-10-31T03:59:39;9.50;;;4.63;;
8247;SDS011;4164;49.844;8.830;2022-10-31T04:02:13;10.93;;;4.80;;
8247;SDS011;4164;49.844;8.830;2022-10-31T04:04:41;7.77;;;4.33;;
8247;SDS011;4164;49.844;8.830;2022-10-31T04:07:09;8.13;;;4.83;;
8247;SDS011;4164;49.844;8.830;2022-10-31T04:09:37;8.40;;;4.40;;
8247;SDS011;4164;49.844;8.830;2022-10-31T04:12:05;15.33;;;5.10;;
8247;SDS011;4164;49.844;8.830;2022-10-31T04:14:34;7.53;;;4.93;;
8247;SDS011;4164;49.844;8.830;2022-10-31T04:17:02;10.13;;;4.47;;
8247;SDS011;4164;49.844;8.830;2022-10-31T04:19:31;9.43;;;5.07;;
8247;SDS011;4164;49.844;8.830;2022-10-31T04:22:00;8.47;;;4.60;;
8247;SDS011;4164;49.844;8.830;2022-10-31T04:24:26;7.87;;;4.50;;
8247;SDS011;4164;49.844;8.830;2022-10-31T04:26:51;8.07;;;4.70;;
8247;SDS011;4164;49.844;8.830;2022-10-31T04:29:17;10.70;;;5.07;;
8247;SDS011;4164;49.844;8.830;2022-10-31T04:31:42;9.20;;;4.60;;
8247;SDS011;4164;49.844;8.830;2022-10-31T04:34:08;8.30;;;4.20;;
8247;SDS011;4164;49.844;8.830;2022-10-31T04:36:33;10.37;;;4.13;;
8247;SDS011;4164;49.844;8.830;2022-10-31T04:38:59;10.23;;;5.10;;
8247;SDS011;4164;49.844;8.830;2022-10-31T04:41:24;8.20;;;4.50;;
8247;SDS011;4164;49.844;8.830;2022-10-31T04:43:50;8.37;;;3.93;;
8247;SDS011;4164;49.844;8.830;2022-10-31T04:46:16;8.90;;;5.50;;
8247;SDS011;4164;49.844;8.830;2022-10-31T04:48:41;10.93;;;5.93;;
8247;SDS011;4164;49.844;8.830;2022-10-31T04:51:07;8.33;;;5.27;;
8247;SDS011;4164;49.844;8.830;2022-10-31T04:53:32;8.03;;;4.67;;
8247;SDS011;4164;49.844;8.830;2022-10-31T04:55:58;7.07;;;4.33;;
8247;SDS011;4164;49.844;8.830;2022-10-31T04:58:27;9.83;;;4.57;;
8247;SDS011;4164;49.844;8.830;2022-10-31T05:00:53;8.70;;;5.10;;
8247;SDS011;4164;49.844;8.830;2022-10-31T05:03:20;11.47;;;5.97;;
8247;SDS011;4164;49.844;8.830;2022-10-31T05:05:46;10.00;;;5.00;;
8247;SDS011;4164;49.844;8.830;2022-10-31T05:08:11;11.50;;;5.30;;
8247;SDS011;4164;49.844;8.830;2022-10-31T05:10:38;10.33;;;5.60;;
8247;SDS011;4164;49.844;8.830;2022-10-31T05:13:03;11.43;;;5.23;;
8247;SDS011;4164;49.844;8.830;2022-10-31T05:15:29;9.07;;;5.17;;
8247;SDS011;4164;49.844;8.830;2022-10-31T05:17:55;10.47;;;4.97;;
8247;SDS011;4164;49.844;8.830;2022-10-31T05:20:23;9.03;;;5.27;;
8247;SDS011;4164;49.844;8.830;2022-10-31T05:22:51;11.90;;;5.57;;
8247;SDS011;4164;49.844;8.830;2022-10-31T05:25:19;10.50;;;5.00;;
8247;SDS011;4164;49.844;8.830;2022-10-31T05:27:46;10.07;;;5.10;;
8247;SDS011;4164;49.844;8.830;2022-10-31T05:30:14;7.77;;;4.03;;
8247;SDS011;4164;49.844;8.830;2022-10-31T05:32:42;7.97;;;4.97;;
8247;SDS011;4164;49.844;8.830;2022-10-31T05:35:10;10.43;;;4.53;;
8247;SDS011;4164;49.844;8.830;2022-10-31T05:37:40;8.77;;;4.87;;
8247;SDS011;4164;49.844;8.830;2022-10-31T05:40:07;11.80;;;4.87;;
8247;SDS011;4164;49.844;8.830;2022-10-31T05:42:34;10.37;;;5.00;;
8247;SDS011;4164;49.844;8.830;2022-10-31T05:45:00;8.60;;;4.13;;
8247;SDS011;4164;49.844;8.830;2022-10-31T05:47:26;6.83;;;4.40;;
8247;SDS011;4164;49.844;8.830;2022-10-31T05:49:52;8.40;;;4.17;;
8247;SDS011;4164;49.844;8.830;2022-10-31T05:52:17;6.67;;;3.90;;
8247;SDS011;4164;49.844;8.830;2022-10-31T05:54:43;9.23;;;4.90;;
8247;SDS011;4164;49.844;8.830;2022-10-31T05:57:09;7.93;;;4.17;;
8247;SDS011;4164;49.844;8.830;2022-10-31T05:59:35;11.20;;;5.07;;
8247;SDS011;4164;49.844;8.830;2022-10-31T06:02:00;10.27;;;5.33;;
8247;SDS011;4164;49.844;8.830;2022-10-31T06:04:26;9.53;;;4.30;;
8247;SDS011;4164;49.844;8.830;2022-10-31T06:06:51;5.90;;;4.13;;
8247;SDS011;4164;49.844;8.830;2022-10-31T06:09:17;7.13;;;5.00;;
8247;SDS011;4164;49.844;8.830;2022-10-31T06:11:42;10.33;;;4.40;;
8247;SDS011;4164;49.844;8.830;2022-10-31T06:14:08;11.80;;;4.47;;
8247;SDS011;4164;49.844;8.830;2022-10-31T06:16:33;9.33;;;4.67;;
8247;SDS011;4164;49.844;8.830;2022-10-31T06:18:59;8.07;;;5.10;;
8247;SDS011;4164;49.844;8.830;2022-10-31T06:21:24;8.13;;;4.60;;
8247;SDS011;4164;49.844;8.830;2022-10-31T06:23:50;9.07;;;4.20;;
8247;SDS011;4164;49.844;8.830;2022-10-31T06:26:15;6.83;;;4.27;;
8247;SDS011;4164;49.844;8.830;2022-10-31T06:28:41;10.53;;;5.27;;
8247;SDS011;4164;49.844;8.830;2022-10-31T06:31:07;9.10;;;4.70;;
8247;SDS011;4164;49.844;8.830;2022-10-31T06:33:32;7.40;;;4.87;;
8247;SDS011;4164;49.844;8.830;2022-10-31T06:35:59;8.97;;;4.53;;
8247;SDS011;4164;49.844;8.830;2022-10-31T06:38:25;11.97;;;4.67;;
8247;SDS011;4164;49.844;8.830;2022-10-31T06:40:51;7.70;;;4.70;;
8247;SDS011;4164;49.844;8.830;2022-10-31T06:43:17;9.77;;;4.67;;
8247;SDS011;4164;49.844;8.830;2022-10-31T06:45:43;7.23;;;4.13;;
8247;SDS011;4164;49.844;8.830;2022-10-31T06:48:08;9.80;;;5.13;;
8247;SDS011;4164;49.844;8.830;2022-10-31T06:50:34;7.03;;;4.03;;
8247;SDS011;4164;49.844;8.830;2022-10-31T06:52:59;6.50;;;4.00;;
8247;SDS011;4164;49.844;8.830;2022-10-31T06:55:25;9.97;;;4.57;;
8247;SDS011;4164;49.844;8.830;2022-10-31T06:57:52;8.90;;;4.73;;
8247;SDS011;4164;49.844;8.830;2022-10-31T07:00:22;7.87;;;4.30;;
8247;SDS011;4164;49.844;8.830;2022-10-31T07:03:04;8.77;;;4.50;;
8247;SDS011;4164;49.844;8.830;2022-10-31T07:05:31;10.20;;;4.60;;
8247;SDS011;4164;49.844;8.830;2022-10-31T07:07:58;9.87;;;4.67;;
8247;SDS011;4164;49.844;8.830;2022-10-31T07:10:26;6.97;;;4.80;;
8247;SDS011;4164;49.844;8.830;2022-10-31T07:12:54;7.67;;;5.00;;
8247;SDS011;4164;49.844;8.830;2022-10-31T07:15:24;8.93;;;5.20;;
8247;SDS011;4164;49.844;8.830;2022-10-31T07:17:51;6.83;;;4.43;;
8247;SDS011;4164;49.844;8.830;2022-10-31T07:20:17;8.97;;;5.33;;
8247;SDS011;4164;49.844;8.830;2022-10-31T07:22:43;9.63;;;4.63;;
8247;SDS011;4164;49.844;8.830;2022-10-31T07:25:09;9.90;;;4.43;;
8247;SDS011;4164;49.844;8.830;2022-10-31T07:27:39;9.40;;;5.50;;
8247;SDS011;4164;49.844;8.830;2022-10-31T07:30:07;8.77;;;4.73;;
8247;SDS011;4164;49.844;8.830;2022-10-31T07:32:40;13.33;;;5.53;;
8247;SDS011;4164;49.844;8.830;2022-10-31T07:35:08;10.80;;;5.13;;
8247;SDS011;4164;49.844;8.830;2022-10-31T07:37:35;9.40;;;4.80;;
8247;SDS011;4164;49.844;8.830;2022-10-31T07:40:01;6.63;;;4.90;;
8247;SDS011;4164;49.844;8.830;2022-10-31T07:42:38;10.47;;;4.80;;
8247;SDS011;4164;49.844;8.830;2022-10-31T07:45:06;9.00;;;5.40;;
8247;SDS011;4164;49.844;8.830;2022-10-31T07:50:06;9.57;;;4.67;;
8247;SDS011;4164;49.844;8.830;2022-10-31T07:52:33;8.27;;;4.93;;
8247;SDS011;4164;49.844;8.830;2022-10-31T07:54:58;8.37;;;4.93;;
8247;SDS011;4164;49.844;8.830;2022-10-31T07:57:24;10.07;;;5.00;;
8247;SDS011;4164;49.844;8.830;2022-10-31T07:59:49;8.67;;;4.70;;
8247;SDS011;4164;49.844;8.830;2022-10-31T08:02:15;10.53;;;5.27;;
8247;SDS011;4164;49.844;8.830;2022-10-31T08:04:40;9.33;;;4.90;;
8247;SDS011;4164;49.844;8.830;2022-10-31T08:07:06;8.77;;;5.17;;
8247;SDS011;4164;49.844;8.830;2022-10-31T08:09:31;12.10;;;5.50;;
8247;SDS011;4164;49.844;8.830;2022-10-31T08:11:57;8.13;;;5.13;;
8247;SDS011;4164;49.844;8.830;2022-10-31T08:14:22;12.87;;;4.90;;
8247;SDS011;4164;49.844;8.830;2022-10-31T08:16:52;10.53;;;5.03;;
8247;SDS011;4164;49.844;8.830;2022-10-31T08:19:18;10.47;;;4.80;;
8247;SDS011;4164;49.844;8.830;2022-10-31T08:21:43;13.07;;;5.33;;
8247;SDS011;4164;49.844;8.830;2022-10-31T08:24:09;7.10;;;4.93;;
8247;SDS011;4164;49.844;8.830;2022-10-31T08:26:34;11.13;;;5.37;;
8247;SDS011;4164;49.844;8.830;2022-10-31T08:29:00;10.27;;;5.63;;
8247;SDS011;4164;49.844;8.830;2022-10-31T08:31:26;19.23;;;5.27;;
8247;SDS011;4164;49.844;8.830;2022-10-31T08:33:52;14.53;;;5.60;;
8247;SDS011;4164;49.844;8.830;2022-10-31T08:36:19;13.20;;;4.87;;
8247;SDS011;4164;49.844;8.830;2022-10-31T08:38:46;12.67;;;5.47;;
8247;SDS011;4164;49.844;8.830;2022-10-31T08:41:12;12.10;;;5.53;;
8247;SDS011;4164;49.844;8.830;2022-10-31T08:43:38;10.10;;;4.93;;
8247;SDS011;4164;49.844;8.830;2022-10-31T08:46:03;12.10;;;5.77;;
8247;SDS011;4164;49.844;8.830;2022-10-31T08:48:29;13.70;;;5.40;;
8247;SDS011;4164;49.844;8.830;2022-10-31T08:50:57;12.03;;;5.50;;
8247;SDS011;4164;49.844;8.830;2022-10-31T08:53:23;16.37;;;5.87;;
8247;SDS011;4164;49.844;8.830;2022-10-31T08:55:50;9.70;;;4.53;;
8247;SDS011;4164;49.844;8.830;2022-10-31T08:58:17;12.20;;;5.67;;
8247;SDS011;4164;49.844;8.830;2022-10-31T09:00:44;16.37;;;5.10;;
8247;SDS011;4164;49.844;8.830;2022-10-31T09:03:11;12.93;;;5.53;;
8247;SDS011;4164;49.844;8.830;2022-10-31T09:05:39;10.77;;;6.37;;
8247;SDS011;4164;49.844;8.830;2022-10-31T09:08:05;11.50;;;5.40;;
8247;SDS011;4164;49.844;8.830;2022-10-31T09:10:32;6.70;;;5.13;;
8247;SDS011;4164;49.844;8.830;2022-10-31T09:13:00;11.30;;;5.33;;
8247;SDS011;4164;49.844;8.830;2022-10-31T09:15:31;9.23;;;5.17;;
8247;SDS011;4164;49.844;8.830;2022-10-31T09:17:57;12.47;;;5.40;;
8247;SDS011;4164;49.844;8.830;2022-10-31T09:20:23;9.50;;;5.70;;
8247;SDS011;4164;49.844;8.830;2022-10-31T09:22:54;7.73;;;4.97;;
8247;SDS011;4164;49.844;8.830;2022-10-31T09:25:21;8.03;;;5.30;;
8247;SDS011;4164;49.844;8.830;2022-10-31T09:27:47;9.07;;;5.23;;
8247;SDS011;4164;49.844;8.830;2022-10-31T09:30:13;8.07;;;5.00;;
8247;SDS011;4164;49.844;8.830;2022-10-31T09:32:39;7.93;;;5.50;;
8247;SDS011;4164;49.844;8.830;2022-10-31T09:35:04;13.10;;;5.10;;
8247;SDS011;4164;49.844;8.830;2022-10-31T09:37:30;11.17;;;5.53;;
8247;SDS011;4164;49.844;8.830;2022-10-31T09:39:55;10.17;;;5.77;;
8247;SDS011;4164;49.844;8.830;2022-10-31T09:42:26;9.33;;;5.27;;
8247;SDS011;4164;49.844;8.830;2022-10-31T09:45:06;13.03;;;6.07;;
8247;SDS011;4164;49.844;8.830;2022-10-31T09:52:40;10.77;;;5.53;;
8247;SDS011;4164;49.844;8.830;2022-10-31T09:55:21;10.47;;;5.60;;
8247;SDS011;4164;49.844;8.830;2022-10-31T09:57:59;14.20;;;6.20;;
8247;SDS011;4164;49.844;8.830;2022-10-31T10:00:27;12.47;;;5.53;;
8247;SDS011;4164;49.844;8.830;2022-10-31T10:02:54;14.60;;;6.20;;
8247;SDS011;4164;49.844;8.830;2022-10-31T10:05:28;11.97;;;5.33;;
8247;SDS011;4164;49.844;8.830;2022-10-31T10:11:00;9.40;;;4.90;;
8247;SDS011;4164;49.844;8.830;2022-10-31T10:13:42;9.33;;;5.80;;
8247;SDS011;4164;49.844;8.830;2022-10-31T10:25:07;13.17;;;5.30;;
8247;SDS011;4164;49.844;8.830;2022-10-31T10:30:27;9.83;;;5.23;;
8247;SDS011;4164;49.844;8.830;2022-10-31T10:33:04;8.50;;;4.97;;
8247;SDS011;4164;49.844;8.830;2022-10-31T10:40:45;8.37;;;5.20;;
8247;SDS011;4164;49.844;8.830;2022-10-31T10:43:19;10.20;;;4.97;;
8247;SDS011;4164;49.844;8.830;2022-10-31T10:49:14;10.70;;;5.80;;
8247;SDS011;4164;49.844;8.830;2022-10-31T10:59:46;10.40;;;5.33;;
8247;SDS011;4164;49.844;8.830;2022-10-31T11:02:19;9.33;;;5.87;;
8247;SDS011;4164;49.844;8.830;2022-10-31T11:04:51;9.83;;;4.70;;
8247;SDS011;4164;49.844;8.830;2022-10-31T11:07:18;9.83;;;4.93;;
8247;SDS011;4164;49.844;8.830;2022-10-31T11:09:44;8.30;;;4.97;;
8247;SDS011;4164;49.844;8.830;2022-10-31T11:12:22;9.43;;;4.93;;
8247;SDS011;4164;49.844;8.830;2022-10-31T11:14:59;7.97;;;4.80;;
8247;SDS011;4164;49.844;8.830;2022-10-31T11:17:33;9.10;;;5.10;;
8247;SDS011;4164;49.844;8.830;2022-10-31T11:20:20;10.30;;;5.30;;
8247;SDS011;4164;49.844;8.830;2022-10-31T11:23:03;6.63;;;4.80;;
8247;SDS011;4164;49.844;8.830;2022-10-31T11:25:47;8.83;;;4.97;;
8247;SDS011;4164;49.844;8.830;2022-10-31T11:28:20;9.17;;;5.67;;
8247;SDS011;4164;49.844;8.830;2022-10-31T11:30:47;11.37;;;5.53;;
8247;SDS011;4164;49.844;8.830;2022-10-31T11:33:17;13.93;;;5.13;;
8247;SDS011;4164;49.844;8.830;2022-10-31T11:35:46;13.43;;;6.07;;
8247;SDS011;4164;49.844;8.830;2022-10-31T11:38:17;8.40;;;4.83;;
8247;SDS011;4164;49.844;8.830;2022-10-31T11:40:58;9.63;;;5.17;;
8247;SDS011;4164;49.844;8.830;2022-10-31T11:43:58;12.03;;;5.63;;
8247;SDS011;4164;49.844;8.830;2022-10-31T11:49:11;8.83;;;5.00;;
8247;SDS011;4164;49.844;8.830;2022-10-31T11:51:47;8.50;;;5.50;;
8247;SDS011;4164;49.844;8.830;2022-10-31T11:54:28;7.63;;;5.57;;
8247;SDS011;4164;49.844;8.830;2022-10-31T11:56:57;14.50;;;5.70;;
8247;SDS011;4164;49.844;8.830;2022-10-31T11:59:24;11.47;;;5.40;;
8247;SDS011;4164;49.844;8.830;2022-10-31T12:01:53;12.50;;;5.90;;
8247;SDS011;4164;49.844;8.830;2022-10-31T12:04:22;8.50;;;5.50;;
8247;SDS011;4164;49.844;8.830;2022-10-31T12:06:55;10.80;;;5.17;;
8247;SDS011;4164;49.844;8.830;2022-10-31T12:09:23;7.03;;;4.67;;
8247;SDS011;4164;49.844;8.830;2022-10-31T12:17:41;8.17;;;5.20;;
8247;SDS011;4164;49.844;8.830;2022-10-31T12:23:20;8.40;;;4.07;;
8247;SDS011;4164;49.844;8.830;2022-10-31T12:26:16;7.53;;;5.03;;
8247;SDS011;4164;49.844;8.830;2022-10-31T12:32:05;8.70;;;4.80;;
8247;SDS011;4164;49.844;8.830;2022-10-31T12:34:55;11.10;;;4.90;;
8247;SDS011;4164;49.844;8.830;2022-10-31T12:37:38;11.63;;;4.83;;
8247;SDS011;4164;49.844;8.830;2022-10-31T12:45:53;10.67;;;4.93;;
8247;SDS011;4164;49.844;8.830;2022-10-31T12:51:29;14.23;;;4.83;;
8247;SDS011;4164;49.844;8.830;2022-10-31T12:54:17;8.57;;;5.20;;
8247;SDS011;4164;49.844;8.830;2022-10-31T12:57:32;12.37;;;5.13;;
8247;SDS011;4164;49.844;8.830;2022-10-31T12:59:50;9.00;;;5.00;;
8247;SDS011;4164;49.844;8.830;2022-10-31T13:05:02;11.20;;;6.27;;
8247;SDS011;4164;49.844;8.830;2022-10-31T13:12:43;12.03;;;5.87;;
8247;SDS011;4164;49.844;8.830;2022-10-31T13:15:17;8.73;;;5.23;;
8247;SDS011;4164;49.844;8.830;2022-10-31T13:17:47;9.57;;;5.00;;
8247;SDS011;4164;49.844;8.830;2022-10-31T13:22:48;13.73;;;4.80;;
8247;SDS011;4164;49.844;8.830;2022-10-31T13:25:18;10.83;;;5.37;;
8247;SDS011;4164;49.844;8.830;2022-10-31T13:30:19;9.37;;;5.23;;
8247;SDS011;4164;49.844;8.830;2022-10-31T13:37:57;14.93;;;5.17;;
8247;SDS011;4164;49.844;8.830;2022-10-31T13:40:46;11.77;;;4.60;;
8247;SDS011;4164;49.844;8.830;2022-10-31T13:48:58;12.80;;;5.17;;
8247;SDS011;4164;49.844;8.830;2022-10-31T13:51:28;11.33;;;5.07;;
8247;SDS011;4164;49.844;8.830;2022-10-31T13:56:25;11.10;;;4.77;;
8247;SDS011;4164;49.844;8.830;2022-10-31T13:58:58;9.83;;;4.93;;
8247;SDS011;4164;49.844;8.830;2022-10-31T14:01:24;12.07;;;4.33;;
8247;SDS011;4164;49.844;8.830;2022-10-31T14:03:57;7.77;;;4.70;;
8247;SDS011;4164;49.844;8.830;2022-10-31T14:06:37;8.30;;;4.67;;
8247;SDS011;4164;49.844;8.830;2022-10-31T14:09:26;9.00;;;5.03;;
8247;SDS011;4164;49.844;8.830;2022-10-31T14:12:00;9.53;;;4.80;;
8247;SDS011;4164;49.844;8.830;2022-10-31T14:14:33;6.33;;;4.50;;
8247;SDS011;4164;49.844;8.830;2022-10-31T14:17:16;8.23;;;4.60;;
8247;SDS011;4164;49.844;8.830;2022-10-31T14:19:56;8.83;;;4.70;;
8247;SDS011;4164;49.844;8.830;2022-10-31T14:22:28;7.50;;;4.70;;
8247;SDS011;4164;49.844;8.830;2022-10-31T14:24:54;10.30;;;4.83;;
8247;SDS011;4164;49.844;8.830;2022-10-31T14:29:48;9.20;;;5.07;;
8247;SDS011;4164;49.844;8.830;2022-10-31T14:51:15;9.37;;;4.60;;
8247;SDS011;4164;49.844;8.830;2022-10-31T14:56:27;7.83;;;4.50;;
8247;SDS011;4164;49.844;8.830;2022-10-31T14:58:56;7.27;;;4.80;;
8247;SDS011;4164;49.844;8.830;2022-10-31T15:01:27;8.73;;;5.43;;
8247;SDS011;4164;49.844;8.830;2022-10-31T15:03:57;10.40;;;5.30;;
8247;SDS011;4164;49.844;8.830;2022-10-31T15:06:37;10.23;;;5.40;;
8247;SDS011;4164;49.844;8.830;2022-10-31T15:09:24;8.67;;;6.07;;
8247;SDS011;4164;49.844;8.830;2022-10-31T15:11:51;14.17;;;6.90;;
8247;SDS011;4164;49.844;8.830;2022-10-31T15:14:21;15.90;;;7.47;;
8247;SDS011;4164;49.844;8.830;2022-10-31T15:16:49;10.63;;;6.10;;
8247;SDS011;4164;49.844;8.830;2022-10-31T15:19:17;15.83;;;6.53;;
8247;SDS011;4164;49.844;8.830;2022-10-31T15:21:49;8.67;;;5.40;;
8247;SDS011;4164;49.844;8.830;2022-10-31T15:24:16;10.77;;;6.20;;
8247;SDS011;4164;49.844;8.830;2022-10-31T15:26:49;11.97;;;5.60;;
8247;SDS011;4164;49.844;8.830;2022-10-31T15:29:18;14.63;;;5.60;;
8247;SDS011;4164;49.844;8.830;2022-10-31T15:31:49;13.07;;;5.50;;
8247;SDS011;4164;49.844;8.830;2022-10-31T15:37:04;12.80;;;6.63;;
8247;SDS011;4164;49.844;8.830;2022-10-31T15:39:37;15.67;;;6.67;;
8247;SDS011;4164;49.844;8.830;2022-10-31T15:42:02;11.83;;;6.17;;
8247;SDS011;4164;49.844;8.830;2022-10-31T15:44:30;13.77;;;5.70;;
8247;SDS011;4164;49.844;8.830;2022-10-31T15:46:58;15.47;;;7.50;;
8247;SDS011;4164;49.844;8.830;2022-10-31T15:49:54;10.13;;;6.10;;
8247;SDS011;4164;49.844;8.830;2022-10-31T15:52:43;12.83;;;7.27;;
8247;SDS011;4164;49.844;8.830;2022-10-31T15:57:34;12.30;;;6.70;;
8247;SDS011;4164;49.844;8.830;2022-10-31T16:00:20;9.67;;;5.97;;
8247;SDS011;4164;49.844;8.830;2022-10-31T16:02:47;12.77;;;7.43;;
8247;SDS011;4164;49.844;8.830;2022-10-31T16:05:17;9.33;;;7.17;;
8247;SDS011;4164;49.844;8.830;2022-10-31T16:07:48;14.17;;;7.77;;
8247;SDS011;4164;49.844;8.830;2022-10-31T16:10:22;11.33;;;7.10;;
8247;SDS011;4164;49.844;8.830;2022-10-31T16:12:50;15.17;;;8.00;;
8247;SDS011;4164;49.844;8.830;2022-10-31T16:15:17;16.27;;;8.63;;
8247;SDS011;4164;49.844;8.830;2022-10-31T16:17:45;16.23;;;8.03;;
8247;SDS011;4164;49.844;8.830;2022-10-31T16:20:25;13.23;;;7.90;;
8247;SDS011;4164;49.844;8.830;2022-10-31T16:22:54;15.03;;;7.83;;
8247;SDS011;4164;49.844;8.830;2022-10-31T16:25:25;18.23;;;8.70;;
8247;SDS011;4164;49.844;8.830;2022-10-31T16:28:14;12.67;;;7.40;;
8247;SDS011;4164;49.844;8.830;2022-10-31T16:30:46;11.97;;;6.70;;
8247;SDS011;4164;49.844;8.830;2022-10-31T16:33:21;14.23;;;7.50;;
8247;SDS011;4164;49.844;8.830;2022-10-31T16:35:59;13.83;;;7.03;;
8247;SDS011;4164;49.844;8.830;2022-10-31T16:38:28;11.73;;;6.70;;
8247;SDS011;4164;49.844;8.830;2022-10-31T16:40:53;11.43;;;7.27;;
8247;SDS011;4164;49.844;8.830;2022-10-31T16:43:19;10.00;;;7.07;;
8247;SDS011;4164;49.844;8.830;2022-10-31T16:45:48;9.60;;;6.60;;
8247;SDS011;4164;49.844;8.830;2022-10-31T16:48:18;7.83;;;6.20;;
8247;SDS011;4164;49.844;8.830;2022-10-31T16:50:46;9.97;;;6.70;;
8247;SDS011;4164;49.844;8.830;2022-10-31T16:53:13;12.47;;;7.20;;
8247;SDS011;4164;49.844;8.830;2022-10-31T16:55:46;12.00;;;6.23;;
8247;SDS011;4164;49.844;8.830;2022-10-31T16:58:19;10.83;;;7.03;;
8247;SDS011;4164;49.844;8.830;2022-10-31T17:00:57;12.77;;;6.70;;
8247;SDS011;4164;49.844;8.830;2022-10-31T17:03:24;10.40;;;6.93;;
8247;SDS011;4164;49.844;8.830;2022-10-31T17:05:50;10.97;;;6.70;;
8247;SDS011;4164;49.844;8.830;2022-10-31T17:08:15;8.87;;;6.60;;
8247;SDS011;4164;49.844;8.830;2022-10-31T17:10:41;13.70;;;7.23;;
8247;SDS011;4164;49.844;8.830;2022-10-31T17:13:15;12.73;;;6.57;;
8247;SDS011;4164;49.844;8.830;2022-10-31T17:15:46;14.47;;;6.97;;
8247;SDS011;4164;49.844;8.830;2022-10-31T17:18:14;15.20;;;10.30;;
8247;SDS011;4164;49.844;8.830;2022-10-31T17:20:40;12.47;;;7.77;;
8247;SDS011;4164;49.844;8.830;2022-10-31T17:23:11;20.23;;;14.77;;
8247;SDS011;4164;49.844;8.830;2022-10-31T17:25:38;17.13;;;12.23;;
8247;SDS011;4164;49.844;8.830;2022-10-31T17:28:03;23.37;;;14.47;;
8247;SDS011;4164;49.844;8.830;2022-10-31T17:30:30;18.20;;;11.20;;
8247;SDS011;4164;49.844;8.830;2022-10-31T17:32:56;13.30;;;9.47;;
8247;SDS011;4164;49.844;8.830;2022-10-31T17:35:21;16.97;;;10.97;;
8247;SDS011;4164;49.844;8.830;2022-10-31T17:37:48;16.37;;;9.73;;
8247;SDS011;4164;49.844;8.830;2022-10-31T17:40:18;13.60;;;8.43;;
8247;SDS011;4164;49.844;8.830;2022-10-31T17:42:52;11.70;;;8.30;;
8247;SDS011;4164;49.844;8.830;2022-10-31T17:45:19;11.90;;;7.63;;